Time;durP1;ratioP1;P1;durP2;ratioP2;P2;SDS_P1;SDS_P2;PMS_P1;PMS_P2;Temp;Humidity;BMP_temperature;BMP_pressure;BME280_temperature;BME280_humidity;BME280_pressure;Samples;Min_cycle;Max_cycle;Signal;HPM_P1;HPM_P2
2022/11/16 00:02:18;;;;;;;50.20;31.73;;;;;;;7.97;78.96;101052.81;1745247;81;21646;-84
2022/11/16 00:04:45;;;;;;;51.88;34.03;;;;;;;7.98;79.03;101059.43;1732510;81;21054;-84
2022/11/16 00:07:12;;;;;;;51.65;32.98;;;;;;;8.01;79.07;101059.07;1733229;81;21008;-84
2022/11/16 00:09:39;;;;;;;46.37;30.97;;;;;;;8.00;79.00;101062.12;1734858;81;21761;-84
2022/11/16 00:12:07;;;;;;;46.60;31.37;;;;;;;8.01;78.88;101060.38;1727766;82;21019;-84
2022/11/16 00:14:35;;;;;;;48.58;31.30;;;;;;;7.89;78.79;101062.98;1695645;82;34608;-83
2022/11/16 00:17:02;;;;;;;45.40;29.92;;;;;;;7.89;79.01;101051.62;1720921;82;20966;-84
2022/11/16 00:19:28;;;;;;;48.63;32.33;;;;;;;7.90;79.12;101058.62;1726058;82;21068;-84
2022/11/16 00:21:55;;;;;;;49.83;32.90;;;;;;;7.88;79.05;101058.59;1727864;82;21718;-83
2022/11/16 00:24:22;;;;;;;48.60;31.07;;;;;;;7.85;79.02;101051.91;1736209;81;21079;-83
2022/11/16 00:26:49;;;;;;;45.92;30.92;;;;;;;7.85;79.12;101049.71;1724149;82;21008;-83
2022/11/16 00:29:19;;;;;;;44.77;30.15;;;;;;;7.86;79.21;101043.62;1725242;81;21067;-83
2022/11/16 00:31:45;;;;;;;46.98;30.30;;;;;;;7.88;79.29;101044.57;1733064;82;21054;-83
2022/11/16 00:34:12;;;;;;;47.88;30.90;;;;;;;7.89;79.21;101042.45;1732897;82;21675;-83
2022/11/16 00:36:39;;;;;;;46.10;30.02;;;;;;;7.91;79.26;101039.47;1736846;82;21022;-84
2022/11/16 00:39:05;;;;;;;49.75;31.65;;;;;;;7.88;79.31;101044.18;1730341;81;20975;-83
2022/11/16 00:41:32;;;;;;;50.75;33.00;;;;;;;7.87;79.21;101048.05;1732549;81;21035;-83
2022/11/16 00:43:59;;;;;;;50.20;32.38;;;;;;;7.79;79.19;101047.73;1732727;82;21518;-84
2022/11/16 00:46:26;;;;;;;49.30;33.73;;;;;;;7.77;79.34;101052.91;1718211;82;21905;-84
2022/11/16 00:48:53;;;;;;;48.35;31.65;;;;;;;7.73;79.30;101054.01;1734983;82;21019;-83
2022/11/16 00:51:19;;;;;;;49.35;31.55;;;;;;;7.70;79.37;101058.72;1734445;82;20992;-83
2022/11/16 00:53:46;;;;;;;52.67;33.95;;;;;;;7.65;79.44;101061.55;1730049;82;21060;-83
2022/11/16 00:56:13;;;;;;;49.42;32.00;;;;;;;7.67;79.53;101053.77;1726178;82;21118;-83
2022/11/16 00:58:39;;;;;;;46.83;30.70;;;;;;;7.66;79.64;101059.81;1734182;82;22001;-83
2022/11/16 01:01:07;;;;;;;47.95;31.40;;;;;;;7.68;79.60;101058.19;1723352;82;21543;-83
2022/11/16 01:03:34;;;;;;;45.65;29.82;;;;;;;7.68;79.68;101062.12;1725714;82;20978;-83
2022/11/16 01:06:07;;;;;;;49.60;31.65;;;;;;;7.68;79.70;101058.19;1741737;82;21853;-83
2022/11/16 01:08:37;;;;;;;49.00;31.48;;;;;;;7.71;79.74;101062.22;1736614;82;21722;-83
2022/11/16 01:13:50;;;;;;;42.78;28.05;;;;;;;7.65;79.74;101065.91;1743216;81;21047;-83
2022/11/16 01:16:18;;;;;;;43.33;29.10;;;;;;;7.66;79.77;101055.89;1739394;81;20988;-83
2022/11/16 01:18:50;;;;;;;45.48;29.48;;;;;;;7.67;79.86;101067.75;1727428;81;20989;-83
2022/11/16 01:21:17;;;;;;;42.90;28.83;;;;;;;7.64;79.75;101065.02;1738490;81;21004;-83
2022/11/16 01:23:43;;;;;;;45.35;31.15;;;;;;;7.64;79.84;101066.72;1735499;81;21759;-83
2022/11/16 01:26:10;;;;;;;47.95;30.00;;;;;;;7.66;79.92;101067.68;1720732;81;21032;-83
2022/11/16 01:28:37;;;;;;;44.53;30.05;;;;;;;7.68;80.07;101072.17;1735320;81;20979;-83
2022/11/16 01:31:03;;;;;;;46.98;28.92;;;;;;;7.70;79.98;101066.58;1744946;81;20992;-83
2022/11/16 01:33:30;;;;;;;49.88;31.20;;;;;;;7.69;79.96;101063.89;1730100;81;21055;-83
2022/11/16 01:35:57;;;;;;;49.38;30.75;;;;;;;7.67;80.04;101064.24;1731690;81;21689;-83
2022/11/16 01:38:23;;;;;;;46.15;28.12;;;;;;;7.70;80.08;101057.83;1733208;81;20988;-83
2022/11/16 01:40:50;;;;;;;47.53;30.40;;;;;;;7.72;80.06;101057.48;1736373;81;21001;-83
2022/11/16 01:43:21;;;;;;;46.53;29.50;;;;;;;7.69;80.05;101052.98;1739043;81;21039;-83
2022/11/16 01:45:48;;;;;;;48.80;30.85;;;;;;;7.67;80.03;101045.91;1726238;81;20995;-83
2022/11/16 01:48:21;;;;;;;46.42;29.27;;;;;;;7.66;80.14;101047.64;1730893;81;22592;-83
2022/11/16 01:50:48;;;;;;;43.80;27.60;;;;;;;7.67;80.17;101048.52;1728631;81;21223;-83
2022/11/16 01:53:15;;;;;;;43.30;24.95;;;;;;;7.64;80.16;101033.59;1734726;81;20979;-83
2022/11/16 01:55:42;;;;;;;35.33;22.27;;;;;;;7.63;80.20;101037.44;1710686;81;21805;-83
2022/11/16 01:58:12;;;;;;;33.02;21.30;;;;;;;7.62;80.22;101033.94;1763063;80;21069;-83
2022/11/16 02:00:39;;;;;;;30.32;19.45;;;;;;;7.62;80.17;101038.26;1762840;80;21725;-83
2022/11/16 02:03:05;;;;;;;28.98;18.95;;;;;;;7.55;80.07;101038.02;1763585;80;21004;-84
2022/11/16 02:05:52;;;;;;;25.85;17.05;;;;;;;7.51;80.15;101033.48;1758718;80;21059;-84
2022/11/16 02:11:47;;;;;;;18.67;12.33;;;;;;;7.50;80.14;101039.53;1764920;79;20992;-83
2022/11/16 02:14:39;;;;;;;18.37;11.75;;;;;;;7.49;80.06;101036.45;1767751;79;22449;-84
2022/11/16 02:17:25;;;;;;;17.30;10.43;;;;;;;7.49;80.13;101040.39;1768745;80;20979;-83
2022/11/16 02:20:09;;;;;;;14.95;10.13;;;;;;;7.49;80.02;101036.84;1763961;80;21389;-84
2022/11/16 02:23:19;;;;;;;12.90;9.90;;;;;;;7.44;79.93;101027.50;1766443;80;21539;-84
2022/11/16 02:26:18;;;;;;;14.33;9.20;;;;;;;7.44;79.84;101037.09;1760578;80;21023;-84
2022/11/16 02:29:08;;;;;;;12.43;8.53;;;;;;;7.42;79.90;101040.95;1763096;80;21762;-84
2022/11/16 02:31:37;;;;;;;11.68;7.65;;;;;;;7.41;79.83;101041.77;1772221;80;21018;-84
2022/11/16 02:34:04;;;;;;;10.78;6.25;;;;;;;7.38;79.65;101042.97;1766612;80;20999;-84
2022/11/16 02:36:30;;;;;;;7.65;4.55;;;;;;;7.37;79.51;101041.16;1736797;81;20989;-83
2022/11/16 02:39:01;;;;;;;6.72;4.85;;;;;;;7.31;79.14;101036.55;1741535;81;21063;-84
2022/11/16 02:41:30;;;;;;;6.40;3.90;;;;;;;7.26;78.94;101042.42;1728925;81;21941;-83
2022/11/16 02:44:06;;;;;;;4.85;3.72;;;;;;;7.22;78.80;101040.52;1738299;81;21481;-83
2022/11/16 02:46:36;;;;;;;4.72;2.92;;;;;;;7.15;78.62;101038.95;1733387;81;20954;-83
2022/11/16 02:49:04;;;;;;;3.10;2.42;;;;;;;7.11;78.54;101034.80;1740209;81;21015;-83
2022/11/16 02:51:33;;;;;;;3.45;2.40;;;;;;;7.03;78.45;101034.89;1714302;82;21390;-83
2022/11/16 02:54:11;;;;;;;3.85;2.55;;;;;;;6.98;78.53;101026.82;1770233;80;22988;-83
2022/11/16 02:56:49;;;;;;;2.45;1.92;;;;;;;6.99;78.54;101026.01;1759801;80;20971;-85
2022/11/16 02:59:15;;;;;;;2.58;1.90;;;;;;;6.95;78.39;101023.67;1769239;78;21444;-85
2022/11/16 03:02:04;;;;;;;3.33;2.10;;;;;;;6.92;78.35;101023.95;1762269;80;21023;-85
2022/11/16 03:04:36;;;;;;;4.85;1.57;;;;;;;6.93;78.40;101024.02;1742847;81;21106;-85
2022/11/16 03:07:03;;;;;;;1.50;1.40;;;;;;;6.93;78.34;101020.09;1735784;81;21744;-86
2022/11/16 03:09:30;;;;;;;4.28;1.40;;;;;;;6.91;78.25;101021.75;1720801;81;20976;-85
2022/11/16 03:11:59;;;;;;;3.95;1.35;;;;;;;6.88;78.12;101016.80;1693053;82;21010;-85
2022/11/16 03:14:39;;;;;;;2.35;1.47;;;;;;;6.84;78.16;101015.76;1723378;82;20993;-85
2022/11/16 03:17:12;;;;;;;1.92;1.05;;;;;;;6.84;78.20;101009.64;1734055;82;21030;-85
2022/11/16 03:20:05;;;;;;;2.05;1.20;;;;;;;6.83;78.16;101009.14;1735325;82;21757;-85
2022/11/16 03:22:47;;;;;;;1.95;1.40;;;;;;;6.82;78.19;101008.26;1737019;82;21089;-84
2022/11/16 03:25:17;;;;;;;2.70;1.70;;;;;;;6.81;78.18;101007.38;1717648;82;21035;-85
2022/11/16 03:28:00;;;;;;;3.25;2.02;;;;;;;6.75;78.03;101000.53;1735994;81;21816;-85
2022/11/16 03:30:28;;;;;;;2.75;1.67;;;;;;;6.74;78.05;101003.11;1729640;82;21071;-85
2022/11/16 03:33:24;;;;;;;3.25;1.50;;;;;;;6.73;78.15;101002.61;1730591;82;22550;-85
2022/11/16 03:36:08;;;;;;;2.37;1.37;;;;;;;6.73;78.13;101005.23;1726929;82;21004;-85
2022/11/16 03:38:35;;;;;;;2.05;1.12;;;;;;;6.71;78.10;101003.84;1728552;82;21564;-85
2022/11/16 03:41:05;;;;;;;2.67;1.40;;;;;;;6.70;78.06;100998.55;1692905;82;21125;-85
2022/11/16 03:43:32;;;;;;;2.10;1.40;;;;;;;6.71;78.16;101005.16;1741228;82;21031;-85
2022/11/16 03:45:59;;;;;;;2.20;1.50;;;;;;;6.70;78.10;101006.00;1731321;82;21958;-85
2022/11/16 03:48:27;;;;;;;0.90;0.90;;;;;;;6.72;78.14;101006.04;1739195;82;20999;-83
2022/11/16 03:50:54;;;;;;;4.00;1.20;;;;;;;6.74;78.17;101005.73;1707893;82;20960;-85
2022/11/16 03:53:20;;;;;;;2.25;1.20;;;;;;;6.76;78.10;101004.95;1734914;81;21070;-85
2022/11/16 03:55:47;;;;;;;2.12;1.32;;;;;;;6.72;78.03;101003.04;1734129;82;21140;-85
2022/11/16 03:58:14;;;;;;;4.25;1.42;;;;;;;6.73;78.04;101001.31;1726557;82;21739;-85
2022/11/16 04:00:40;;;;;;;1.95;1.27;;;;;;;6.74;78.05;101005.30;1706740;82;21063;-83
2022/11/16 04:03:07;;;;;;;1.47;1.15;;;;;;;6.72;78.04;101008.27;1710357;83;20998;-82
2022/11/16 04:24:55;;;;;;;2.12;1.50;;;;;;;6.67;78.09;101007.58;1733735;81;21912;-85
2022/11/16 04:30:10;;;;;;;5.00;1.50;;;;;;;6.66;77.98;101023.67;1746192;81;20992;-85
2022/11/16 04:38:06;;;;;;;1.85;1.37;;;;;;;6.63;77.64;101018.31;1745824;81;22805;-85
2022/11/16 04:40:33;;;;;;;2.10;1.65;;;;;;;6.61;77.48;101018.24;1761041;80;20992;-85
2022/11/16 04:43:02;;;;;;;2.20;1.20;;;;;;;6.61;77.41;101015.63;1771183;80;20984;-85
2022/11/16 04:48:14;;;;;;;1.98;1.37;;;;;;;6.60;77.06;101014.24;1721540;81;21511;-85
2022/11/16 04:50:40;;;;;;;2.62;1.22;;;;;;;6.59;76.88;101014.66;1764103;80;22541;-85
2022/11/16 04:53:07;;;;;;;2.87;1.40;;;;;;;6.56;76.59;101011.90;1712429;83;21846;-84
2022/11/16 04:55:34;;;;;;;6.37;1.40;;;;;;;6.52;76.50;101007.78;1712742;82;21026;-83
2022/11/16 04:58:00;;;;;;;3.30;1.15;;;;;;;6.50;76.42;101001.59;1758650;80;21031;-82
2022/11/16 05:00:27;;;;;;;2.52;1.35;;;;;;;6.49;76.10;100999.78;1769332;80;21015;-84
2022/11/16 05:02:54;;;;;;;3.10;1.35;;;;;;;6.48;76.02;101005.44;1758632;80;21723;-85
2022/11/16 05:05:21;;;;;;;5.85;1.90;;;;;;;6.47;75.83;100999.71;1763102;80;20995;-84
2022/11/16 05:07:47;;;;;;;6.83;3.02;;;;;;;6.45;75.69;100996.55;1768576;80;20971;-83
2022/11/16 05:10:14;;;;;;;8.53;3.80;;;;;;;6.43;75.46;100997.79;1772076;80;21022;-84
2022/11/16 05:12:41;;;;;;;8.53;3.40;;;;;;;6.41;75.28;100995.52;1772044;79;21047;-84
2022/11/16 05:15:08;;;;;;;5.87;2.67;;;;;;;6.38;75.19;101001.52;1772103;79;21773;-83
2022/11/16 05:17:35;;;;;;;3.15;1.90;;;;;;;6.38;75.00;100995.37;1767236;80;21004;-83
2022/11/16 05:22:56;;;;;;;1.45;1.00;;;;;;;6.37;74.72;101010.17;1769475;80;21046;-84
2022/11/16 05:25:22;;;;;;;1.17;1.05;;;;;;;6.37;74.60;101008.86;1753230;80;21034;-81
2022/11/16 05:27:49;;;;;;;1.45;1.05;;;;;;;6.37;74.56;101000.13;1753536;80;21716;-81
2022/11/16 05:30:16;;;;;;;2.25;1.10;;;;;;;6.35;74.40;101009.20;1767526;80;21050;-82
2022/11/16 05:32:43;;;;;;;3.05;1.25;;;;;;;6.32;74.41;101011.66;1767141;80;21018;-82
2022/11/16 05:35:09;;;;;;;2.33;1.10;;;;;;;6.33;74.39;101015.20;1763268;80;21375;-81
2022/11/16 05:37:36;;;;;;;2.47;1.00;;;;;;;6.29;74.26;101008.02;1770196;80;20984;-84
2022/11/16 05:40:04;;;;;;;3.60;0.90;;;;;;;6.26;74.28;101017.92;1764374;80;21953;-84
2022/11/16 05:42:30;;;;;;;1.27;0.95;;;;;;;6.23;74.24;101012.55;1769075;80;21218;-83
2022/11/16 05:44:57;;;;;;;1.82;1.42;;;;;;;6.21;74.23;101015.50;1769910;80;21433;-84
2022/11/16 05:47:24;;;;;;;2.30;1.60;;;;;;;6.19;74.21;101014.15;1765635;80;21108;-84
2022/11/16 05:49:50;;;;;;;1.87;1.22;;;;;;;6.21;74.23;101015.50;1763725;79;21571;-83
2022/11/16 05:52:17;;;;;;;3.92;1.50;;;;;;;6.24;74.28;101022.19;1755801;80;22524;-83
2022/11/16 05:54:44;;;;;;;2.35;1.45;;;;;;;6.23;74.14;101016.08;1767854;80;20979;-83
2022/11/16 05:57:10;;;;;;;1.20;1.10;;;;;;;6.21;74.03;101020.34;1764586;80;21004;-83
2022/11/16 05:59:37;;;;;;;2.35;1.30;;;;;;;6.20;74.05;101015.03;1768997;80;22218;-83
2022/11/16 06:02:03;;;;;;;1.87;1.22;;;;;;;6.17;74.01;101019.69;1765847;80;21062;-81
2022/11/16 06:04:31;;;;;;;2.22;1.35;;;;;;;6.16;74.04;101024.45;1764918;80;22398;-83
2022/11/16 06:06:58;;;;;;;3.55;1.50;;;;;;;6.15;74.04;101025.67;1772612;80;20988;-83
2022/11/16 06:09:24;;;;;;;1.25;1.10;;;;;;;6.13;74.03;101025.59;1769086;80;21038;-83
2022/11/16 06:11:51;;;;;;;2.08;1.40;;;;;;;6.11;73.90;101028.97;1750974;79;20997;-85
2022/11/16 06:14:18;;;;;;;1.35;1.25;;;;;;;6.07;73.91;101025.31;1758428;81;21024;-84
2022/11/16 06:16:44;;;;;;;1.95;1.30;;;;;;;6.07;73.92;101030.97;1720917;81;21763;-82
2022/11/16 06:19:11;;;;;;;2.80;1.50;;;;;;;6.07;73.94;101038.38;1752401;80;20961;-83
2022/11/16 06:21:38;;;;;;;1.72;1.35;;;;;;;6.05;73.93;101041.76;1746190;81;21007;-83
2022/11/16 06:24:07;;;;;;;1.70;1.07;;;;;;;6.01;73.99;101038.09;1719208;82;20982;-83
2022/11/16 06:26:33;;;;;;;1.45;0.90;;;;;;;6.03;74.09;101047.80;1722277;82;21003;-83
2022/11/16 06:29:00;;;;;;;2.05;0.95;;;;;;;6.01;74.01;101043.33;1728526;81;21723;-83
2022/11/16 06:31:27;;;;;;;2.02;1.20;;;;;;;6.00;74.01;101051.97;1717550;82;22162;-83
2022/11/16 06:33:54;;;;;;;4.62;1.50;;;;;;;5.96;73.93;101048.73;1737627;81;20978;-83
2022/11/16 06:36:21;;;;;;;9.23;3.83;;;;;;;5.91;73.75;101046.27;1715055;82;20982;-83
2022/11/16 06:38:48;;;;;;;6.78;3.70;;;;;;;5.84;73.69;101048.59;1717517;82;22086;-83
2022/11/16 06:41:14;;;;;;;5.75;2.58;;;;;;;5.83;73.69;101048.51;1743450;81;21465;-83
2022/11/16 06:43:41;;;;;;;4.75;1.98;;;;;;;5.83;73.62;101052.00;1717183;82;21068;-83
2022/11/16 06:46:08;;;;;;;2.85;1.67;;;;;;;5.79;73.39;101046.16;1743413;81;21020;-83
2022/11/16 06:48:34;;;;;;;2.72;1.70;;;;;;;5.79;73.40;101053.98;1719932;82;21509;-83
2022/11/16 06:51:01;;;;;;;2.20;1.57;;;;;;;5.78;73.23;101052.22;1743329;81;21423;-83
2022/11/16 06:53:28;;;;;;;3.65;1.60;;;;;;;5.73;73.05;101051.50;1720618;82;22963;-83
2022/11/16 06:55:54;;;;;;;3.25;1.62;;;;;;;5.68;73.04;101042.12;1742593;81;21042;-83
2022/11/16 06:58:21;;;;;;;3.70;1.85;;;;;;;5.68;73.07;101052.56;1724166;82;21006;-83
2022/11/16 07:00:48;;;;;;;2.33;1.47;;;;;;;5.68;73.04;101053.87;1748122;81;21116;-83
2022/11/16 07:03:14;;;;;;;2.92;1.50;;;;;;;5.67;73.01;101053.79;1713574;82;20979;-83
2022/11/16 07:05:41;;;;;;;2.87;1.72;;;;;;;5.67;72.78;101048.56;1754966;81;21729;-83
2022/11/16 07:08:08;;;;;;;3.27;1.90;;;;;;;5.61;72.59;101053.08;1722778;82;21030;-83
2022/11/16 07:10:36;;;;;;;2.25;1.77;;;;;;;5.59;72.45;101050.80;1733682;82;20977;-83
2022/11/16 07:13:03;;;;;;;2.65;1.90;;;;;;;5.57;72.47;101052.44;1722838;82;21003;-82
2022/11/16 07:15:30;;;;;;;2.75;2.10;;;;;;;5.55;72.38;101052.78;1740319;81;20983;-82
2022/11/16 07:18:04;;;;;;;3.62;2.22;;;;;;;5.53;72.41;101050.08;1729023;82;22592;-82
2022/11/16 07:20:30;;;;;;;;;;;;;;;5.52;72.23;101053.91;1698627;82;21036;-82
2022/11/16 07:23:00;;;;;;;4.20;2.90;;;;;;;5.50;72.33;101058.17;1724696;82;20174;-82
2022/11/16 07:25:26;;;;;;;4.53;2.98;;;;;;;5.50;72.41;101057.78;1733888;82;20983;-83
2022/11/16 07:27:53;;;;;;;4.80;2.72;;;;;;;5.50;72.28;101052.95;1724415;82;21014;-82
2022/11/16 07:30:20;;;;;;;3.77;3.20;;;;;;;5.48;72.15;101056.81;1766251;80;21532;-82
2022/11/16 07:32:46;;;;;;;3.45;2.55;;;;;;;5.43;72.14;101050.03;1754967;81;21000;-82
2022/11/16 07:35:13;;;;;;;3.92;2.98;;;;;;;5.42;72.24;101061.70;1765782;79;20957;-83
2022/11/16 07:37:40;;;;;;;3.00;2.70;;;;;;;5.40;72.18;101052.90;1761720;81;21675;-82
2022/11/16 07:40:08;;;;;;;3.50;2.33;;;;;;;5.42;72.17;101047.34;1760814;81;21592;-82
2022/11/16 07:42:35;;;;;;;4.10;2.85;;;;;;;5.42;72.20;101050.87;1753972;80;23264;-81
2022/11/16 07:45:02;;;;;;;3.50;2.42;;;;;;;5.45;72.17;101050.13;1758379;80;21089;-81
2022/11/16 07:47:28;;;;;;;3.70;2.92;;;;;;;5.46;72.20;101044.06;1747286;81;21011;-81
2022/11/16 07:49:55;;;;;;;6.10;2.72;;;;;;;5.48;72.17;101046.38;1712187;82;21008;-81
2022/11/16 07:52:22;;;;;;;4.12;2.45;;;;;;;5.48;72.16;101043.77;1726650;82;21091;-81
2022/11/16 07:54:48;;;;;;;2.22;2.00;;;;;;;5.50;72.21;101042.12;1739697;81;21735;-81
2022/11/16 07:57:18;;;;;;;4.25;2.05;;;;;;;5.51;72.16;101045.20;1726739;81;21012;-82
2022/11/16 07:59:45;;;;;;;2.35;2.15;;;;;;;5.50;72.02;101048.64;1737490;81;21910;-83
2022/11/16 08:02:12;;;;;;;3.47;2.20;;;;;;;5.45;72.12;101047.09;1728397;82;21001;-81
2022/11/16 08:04:38;;;;;;;8.63;1.67;;;;;;;5.44;72.08;101049.23;1712133;82;20992;-81
2022/11/16 08:07:05;;;;;;;4.25;1.92;;;;;;;5.44;72.01;101060.98;1743830;81;21734;-83
2022/11/16 08:09:32;;;;;;;3.87;3.40;;;;;;;5.30;71.88;101052.84;1756241;80;21408;-81
2022/11/16 08:11:59;;;;;;;2.00;1.57;;;;;;;5.22;72.16;101056.38;1689566;82;21890;-81
2022/11/16 08:14:28;;;;;;;3.95;2.55;;;;;;;5.21;72.21;101053.67;1729026;81;21821;-81
2022/11/16 08:16:54;;;;;;;2.75;1.87;;;;;;;5.19;72.31;101064.45;1763767;80;21376;-81
2022/11/16 08:19:21;;;;;;;2.45;2.17;;;;;;;5.11;72.13;101064.05;1739234;81;21756;-81
2022/11/16 08:21:48;;;;;;;2.33;2.00;;;;;;;5.08;72.27;101069.10;1730884;81;21003;-81
2022/11/16 08:24:14;;;;;;;2.40;1.90;;;;;;;5.06;72.30;101078.15;1731017;81;21019;-83
2022/11/16 08:26:41;;;;;;;2.75;1.70;;;;;;;5.04;72.19;101085.42;1738521;81;21023;-81
2022/11/16 08:29:08;;;;;;;2.00;1.42;;;;;;;4.98;72.22;101082.08;1724339;81;21159;-83
2022/11/16 08:31:34;;;;;;;1.60;1.27;;;;;;;4.99;72.22;101079.05;1734103;81;21725;-81
2022/11/16 08:34:01;;;;;;;2.67;1.50;;;;;;;4.93;72.01;101082.23;1729295;81;21044;-81
2022/11/16 08:36:28;;;;;;;1.57;1.30;;;;;;;4.93;72.08;101095.28;1760257;80;22037;-81
2022/11/16 08:38:54;;;;;;;2.08;1.77;;;;;;;4.92;71.95;101080.84;1743035;81;22327;-81
2022/11/16 08:41:26;;;;;;;2.15;1.40;;;;;;;4.87;71.98;101082.80;1729255;81;21922;-83
2022/11/16 08:43:55;;;;;;;;;;;;;;;4.91;72.18;101081.67;1704205;82;21885;-81
2022/11/16 08:46:21;;;;;;;5.65;2.22;;;;;;;4.98;72.11;101080.78;1733177;81;20862;-81
2022/11/16 08:48:48;;;;;;;3.10;2.25;;;;;;;5.04;71.97;101083.70;1734200;81;21026;-81
2022/11/16 08:51:17;;;;;;;1.92;1.60;;;;;;;4.99;71.78;101082.58;1722715;81;21011;-81
2022/11/16 08:53:47;;;;;;;1.77;1.30;;;;;;;5.00;71.71;101079.14;1737934;81;21048;-80
2022/11/16 08:56:15;;;;;;;2.45;1.60;;;;;;;4.97;71.55;101084.60;1760387;80;21937;-81
2022/11/16 08:58:42;;;;;;;1.87;1.40;;;;;;;4.91;71.66;101083.88;1757385;80;21043;-81
2022/11/16 09:01:11;;;;;;;4.65;2.80;;;;;;;4.92;71.64;101097.41;1767365;79;21949;-81
2022/11/16 09:03:38;;;;;;;6.47;4.12;;;;;;;4.87;71.53;101084.53;1762534;79;21138;-81
2022/11/16 09:06:05;;;;;;;3.95;2.62;;;;;;;4.91;71.74;101090.39;1758802;79;20997;-81
2022/11/16 09:08:32;;;;;;;2.77;2.58;;;;;;;4.92;71.65;101088.67;1763740;80;21747;-80
2022/11/16 09:10:58;;;;;;;1.82;1.55;;;;;;;4.93;71.60;101089.17;1762061;80;21847;-81
2022/11/16 09:13:25;;;;;;;1.37;1.25;;;;;;;4.89;71.43;101096.36;1764400;80;20967;-81
2022/11/16 09:15:57;;;;;;;2.75;1.42;;;;;;;4.81;71.45;101098.14;1724675;81;21044;-81
2022/11/16 09:18:24;;;;;;;3.55;1.90;;;;;;;4.77;71.60;101099.21;1735378;81;21509;-81
2022/11/16 09:20:51;;;;;;;1.77;1.37;;;;;;;4.77;71.83;101093.58;1732814;81;21751;-81
2022/11/16 09:23:18;;;;;;;2.67;1.72;;;;;;;4.80;71.85;101087.20;1734755;81;20983;-81
2022/11/16 09:25:47;;;;;;;4.22;2.10;;;;;;;4.80;71.80;101084.59;1740078;81;21090;-83
2022/11/16 09:28:18;;;;;;;1.50;1.40;;;;;;;4.84;72.04;101087.87;1767213;79;21010;-81
2022/11/16 09:30:45;;;;;;;1.90;1.40;;;;;;;4.83;71.83;101086.08;1740876;81;21095;-81
2022/11/16 09:33:12;;;;;;;2.10;1.80;;;;;;;4.82;71.96;101082.07;1720660;81;21734;-81
2022/11/16 09:35:39;;;;;;;2.25;1.85;;;;;;;4.78;71.84;101082.73;1732204;81;20973;-82
2022/11/16 09:38:05;;;;;;;3.55;2.42;;;;;;;4.78;71.97;101075.80;1726045;82;20967;-83
2022/11/16 09:40:38;;;;;;;4.65;2.33;;;;;;;4.82;72.11;101079.47;1757993;79;21820;-83
2022/11/16 09:43:52;;;;;;;3.93;3.07;;;;;;;4.86;72.10;101077.13;1768443;80;21012;-81
2022/11/16 09:46:24;;;;;;;2.47;2.05;;;;;;;4.84;72.05;101073.92;1734727;81;22708;-83
2022/11/16 09:48:50;;;;;;;2.00;1.80;;;;;;;4.82;72.15;101073.87;1719117;81;20950;-81
2022/11/16 09:51:18;;;;;;;2.47;1.82;;;;;;;4.87;72.14;101077.59;1705641;82;20983;-81
2022/11/16 09:53:56;;;;;;;4.33;2.10;;;;;;;4.83;71.95;101069.54;1751608;80;20983;-82
2022/11/16 09:56:27;;;;;;;2.00;1.52;;;;;;;4.86;72.17;101068.38;1704283;81;21062;-81
2022/11/16 09:59:20;;;;;;;2.35;1.75;;;;;;;4.92;72.07;101071.33;1733688;81;21851;-81
2022/11/16 10:02:14;;;;;;;2.08;1.62;;;;;;;4.98;71.99;101070.34;1724802;81;20971;-80
2022/11/16 10:04:52;;;;;;;2.25;1.70;;;;;;;4.96;71.86;101070.67;1728658;81;21946;-80
2022/11/16 10:07:42;;;;;;;1.87;1.17;;;;;;;5.09;71.94;101065.69;1731206;81;21463;-82
2022/11/16 10:10:15;;;;;;;1.55;1.40;;;;;;;5.06;71.62;101066.83;1743600;81;20979;-81
2022/11/16 10:13:21;;;;;;;2.15;1.40;;;;;;;5.09;71.52;101071.30;1729708;81;21732;-81
2022/11/16 10:16:13;;;;;;;2.35;1.32;;;;;;;5.04;71.43;101070.66;1734053;81;21027;-92
2022/11/16 10:18:50;;;;;;;2.45;1.30;;;;;;;5.02;71.40;101072.28;1714722;82;20999;-86
2022/11/16 10:21:50;;;;;;;2.00;1.32;;;;;;;4.91;71.06;101066.91;1729088;81;20999;-86
2022/11/16 10:24:28;;;;;;;1.82;1.40;;;;;;;4.81;71.26;101065.54;1729746;80;21016;-86
2022/11/16 10:27:15;;;;;;;4.28;1.72;;;;;;;4.81;71.43;101066.84;1700154;82;21738;-87
2022/11/16 10:30:18;;;;;;;1.45;1.25;;;;;;;4.86;71.51;101070.98;1727156;80;21759;-86
2022/11/16 10:32:52;;;;;;;1.98;1.50;;;;;;;4.78;71.29;101067.08;1719830;82;21006;-86
2022/11/16 10:35:37;;;;;;;3.12;1.47;;;;;;;4.64;71.28;101067.24;1717669;82;21032;-86
2022/11/16 10:38:10;;;;;;;2.27;1.52;;;;;;;4.60;71.34;101066.59;1723621;81;21110;-87
2022/11/16 10:40:37;;;;;;;1.82;1.57;;;;;;;4.54;71.37;101062.75;1732864;81;21859;-86
2022/11/16 10:43:19;;;;;;;3.33;1.50;;;;;;;4.50;71.58;101059.48;1708951;82;21017;-86
2022/11/16 10:45:59;;;;;;;2.12;1.70;;;;;;;4.57;71.88;101054.69;1729185;82;21021;-86
2022/11/16 10:49:10;;;;;;;2.25;1.70;;;;;;;4.66;71.83;101054.30;1727566;82;21008;-86
2022/11/16 10:51:37;;;;;;;2.25;1.65;;;;;;;4.68;71.86;101056.57;1727843;82;21919;-87
2022/11/16 10:54:15;;;;;;;1.90;1.60;;;;;;;4.73;71.75;101057.73;1726678;82;21723;-87
2022/11/16 10:56:44;;;;;;;1.95;1.60;;;;;;;4.68;71.57;101051.36;1727067;82;21915;-87
2022/11/16 10:59:12;;;;;;;3.25;1.62;;;;;;;4.67;71.64;101054.38;1703113;82;20992;-87
2022/11/16 11:02:06;;;;;;;4.33;1.57;;;;;;;4.64;71.67;101047.69;1725980;82;21546;-88
2022/11/16 11:04:26;;;;;;;4.10;1.57;;;;;;;4.69;71.75;101055.74;1715273;82;21015;-87
2022/11/16 11:06:59;;;;;;;1.77;1.37;;;;;;;4.73;71.78;101051.20;1717493;82;21733;-87
2022/11/16 11:09:33;;;;;;;2.93;1.33;;;;;;;4.66;71.56;101042.14;1739402;82;21073;-87
2022/11/16 11:15:21;;;;;;;2.47;1.87;;;;;;;4.57;71.42;101046.86;1729153;80;21508;-87
2022/11/16 11:17:50;;;;;;;2.87;1.47;;;;;;;4.56;71.67;101050.30;1724023;82;20974;-87
2022/11/16 11:20:22;;;;;;;1.82;1.47;;;;;;;4.60;71.66;101053.98;1734312;82;21693;-87
2022/11/16 11:22:57;;;;;;;4.80;2.60;;;;;;;4.59;71.60;101050.86;1729760;82;20983;-87
2022/11/16 11:25:32;;;;;;;4.33;2.58;;;;;;;4.62;71.79;101050.63;1713425;82;20988;-87
2022/11/16 11:28:27;;;;;;;5.17;3.08;;;;;;;4.61;71.56;101055.75;1709817;82;21035;-87
2022/11/16 11:31:05;;;;;;;2.55;1.85;;;;;;;4.46;71.52;101054.09;1710535;83;21360;-87
2022/11/16 11:33:38;;;;;;;2.47;1.52;;;;;;;4.40;71.54;101057.68;1725669;82;21724;-87
2022/11/16 11:36:18;;;;;;;2.70;1.65;;;;;;;4.37;71.67;101060.11;1721567;82;21040;-87
2022/11/16 11:39:05;;;;;;;2.37;1.60;;;;;;;4.36;71.53;101059.63;1705344;82;20976;-87
2022/11/16 11:41:39;;;;;;;4.33;1.67;;;;;;;4.27;71.40;101057.82;1710478;82;21112;-87
2022/11/16 11:44:08;;;;;;;;;;;;;;;4.21;71.26;101060.09;1732258;82;21027;-87
2022/11/16 11:46:36;;;;;;;2.47;1.72;;;;;;;4.15;71.24;101058.42;1740754;82;21750;-88
2022/11/16 11:49:15;;;;;;;2.87;1.80;;;;;;;4.08;71.12;101067.21;1723736;82;21578;-87
2022/11/16 11:51:45;;;;;;;2.33;1.90;;;;;;;4.02;71.17;101063.39;1667384;84;21045;-87
2022/11/16 11:54:36;;;;;;;2.10;1.80;;;;;;;4.00;71.09;101072.41;1668112;84;21050;-87
2022/11/16 11:57:02;;;;;;;1.67;1.40;;;;;;;3.96;70.91;101082.17;1677890;84;21091;-87
2022/11/16 11:59:29;;;;;;;5.90;1.80;;;;;;;3.94;70.87;101068.16;1678015;84;22596;-87
2022/11/16 12:02:13;;;;;;;2.50;1.92;;;;;;;3.96;70.85;101074.73;1643488;86;21518;-87
2022/11/16 12:04:49;;;;;;;;;;;;;;;3.91;70.67;101074.91;1684635;85;21023;-87
2022/11/16 12:07:21;;;;;;;1.45;1.35;;;;;;;3.84;70.69;101069.73;1687347;83;20626;-87
2022/11/16 12:10:07;;;;;;;2.17;1.67;;;;;;;3.81;70.67;101071.77;1684664;84;21071;-87
2022/11/16 12:12:58;;;;;;;2.98;2.10;;;;;;;3.77;70.57;101074.09;1652890;85;21804;-87
2022/11/16 12:16:05;;;;;;;2.00;1.77;;;;;;;3.76;70.77;101070.60;1709860;82;21904;-88
2022/11/16 12:18:46;;;;;;;3.90;1.92;;;;;;;3.80;70.75;101069.08;1707646;82;21191;-87
2022/11/16 12:21:33;;;;;;;2.00;1.70;;;;;;;3.80;70.70;101072.56;1641874;82;21065;-92
2022/11/16 12:24:46;;;;;;;2.85;1.75;;;;;;;3.73;70.65;101066.51;1690644;84;21438;-87
2022/11/16 12:27:36;;;;;;;2.20;1.80;;;;;;;3.72;70.61;101066.41;1713845;82;21498;-87
2022/11/16 12:30:17;;;;;;;2.15;1.50;;;;;;;3.73;70.70;101066.51;1678238;83;21860;-87
2022/11/16 12:33:13;;;;;;;1.65;1.42;;;;;;;3.67;70.58;101064.45;1706088;82;20983;-87
2022/11/16 12:35:47;;;;;;;2.40;2.00;;;;;;;3.59;70.61;101068.33;1718199;81;21014;-87